Knoxville, Tennessee
Current Conditions -  °F | °C
As of 1:53 PM on Friday 28 Nov 2014 (Local Time) from KTYS Reporting Station
Few Clouds Few Clouds  
Wind Chill:   Ceiling: Unl
Heat Index:   Visibility: 10mi
Dew Point: -7°   Wind: 0mph
Humidity: 45%   Direction: NA
Pressure: 30.33"   Gusts: NA
Location:  35.96°N, 83.92°W
Report Text: KTYS 281853Z 00000KT 10SM FEW250 04/M07 A3033 RMK AO2 SLP275 T00391072
Loading
Personal Weather Stations






























Interactive Weather Map New forecast layout! Learn more

10-Day Weather Forecast

Advertisements
Track Severe Weather on mobile